Time;durP1;ratioP1;P1;durP2;ratioP2;P2;SDS_P1;SDS_P2;PMS_P1;PMS_P2;Temp;Humidity;BMP_temperature;BMP_pressure;BME280_temperature;BME280_humidity;BME280_pressure;Samples;Min_cycle;Max_cycle;Signal;HPM_P1;HPM_P2
2023/03/03 00:00:07;;;;;;;44.70;22.50;;;;;;;0.11;100.00;102442.69;10226757;28;20143;-69
2023/03/03 00:05:04;;;;;;;51.58;23.95;;;;;;;0.20;100.00;102438.75;10222849;28;20060;-69
2023/03/03 00:10:01;;;;;;;46.90;23.73;;;;;;;0.27;100.00;102444.16;10217701;28;20050;-69
2023/03/03 00:14:57;;;;;;;60.33;25.10;;;;;;;0.27;100.00;102432.56;10220297;28;20048;-69
2023/03/03 00:19:54;;;;;;;63.63;26.85;;;;;;;0.22;100.00;102445.81;10223599;28;20132;-70
2023/03/03 00:24:51;;;;;;;76.22;26.38;;;;;;;0.16;100.00;102440.22;10217220;28;20073;-70
2023/03/03 00:29:54;;;;;;;64.28;26.10;;;;;;;0.22;100.00;102440.44;10229218;28;20044;-70
2023/03/03 00:34:54;;;;;;;74.18;28.25;;;;;;;0.30;100.00;102443.75;10229982;28;20081;-70
2023/03/03 00:39:50;;;;;;;54.22;25.70;;;;;;;0.41;100.00;102434.22;10224677;28;20534;-70
2023/03/03 00:44:54;;;;;;;66.55;25.63;;;;;;;0.32;100.00;102446.22;10228202;28;20521;-70
2023/03/03 00:49:53;;;;;;;65.60;29.38;;;;;;;0.48;100.00;102439.59;10222193;28;20160;-69
2023/03/03 00:54:49;;;;;;;66.50;27.25;;;;;;;0.35;100.00;102435.06;10230620;28;20045;-69
2023/03/03 00:59:46;;;;;;;67.72;28.00;;;;;;;0.36;100.00;102442.91;10230125;28;20042;-69
2023/03/03 01:04:47;;;;;;;68.93;26.65;;;;;;;0.46;100.00;102441.66;10246949;28;20128;-69
2023/03/03 01:09:44;;;;;;;59.90;25.00;;;;;;;0.27;100.00;102432.56;10224320;28;20046;-69
2023/03/03 01:14:41;;;;;;;49.08;25.33;;;;;;;0.24;100.00;102443.75;10217488;28;20114;-70
2023/03/03 01:19:37;;;;;;;140.55;30.17;;;;;;;0.15;100.00;102432.34;10230620;28;20050;-69
2023/03/03 01:24:34;;;;;;;51.25;24.33;;;;;;;0.07;100.00;102425.31;10218722;28;20053;-69
2023/03/03 01:29:30;;;;;;;80.50;26.33;;;;;;;0.15;100.00;102418.91;10235618;28;20136;-69
2023/03/03 01:34:27;;;;;;;60.63;25.45;;;;;;;0.28;100.00;102412.69;10234731;28;20061;-70
2023/03/03 01:39:23;;;;;;;50.13;23.92;;;;;;;0.26;100.00;102404.00;10206970;28;20060;-69
2023/03/03 01:44:19;;;;;;;109.38;29.90;;;;;;;-0.04;100.00;102412.47;10225901;28;20046;-70
2023/03/03 01:49:52;;;;;;;50.72;24.77;;;;;;;0.17;100.00;102400.69;10217993;28;20051;-69
2023/03/03 01:54:52;;;;;;;113.43;27.33;;;;;;;0.08;100.00;102408.13;10203594;28;20079;-69
2023/03/03 01:59:51;;;;;;;103.00;28.30;;;;;;;0.28;100.00;102401.91;10225706;28;20073;-72
2023/03/03 02:04:49;;;;;;;47.58;23.00;;;;;;;0.20;100.00;102392.19;10219748;28;20099;-71
2023/03/03 02:10:11;;;;;;;58.03;24.58;;;;;;;0.46;100.00;102404.81;10227642;28;20044;-72
2023/03/03 02:15:27;;;;;;;51.90;23.88;;;;;;;0.40;100.00;102397.59;10223327;28;20049;-70
2023/03/03 02:20:43;;;;;;;49.90;23.48;;;;;;;0.03;100.00;102399.88;10227814;28;20060;-69
2023/03/03 02:25:53;;;;;;;66.38;24.00;;;;;;;0.03;100.00;102399.88;10225151;28;20465;-69
2023/03/03 02:30:57;;;;;;;78.15;27.27;;;;;;;-0.06;100.00;102396.53;10220614;28;20042;-69
2023/03/03 02:35:54;;;;;;;61.72;22.65;;;;;;;-0.12;100.00;102408.09;10215709;28;20069;-68
2023/03/03 02:41:01;;;;;;;42.40;22.00;;;;;;;-0.29;100.00;102402.28;10226348;28;20049;-68
2023/03/03 02:45:58;;;;;;;56.13;21.98;;;;;;;-0.23;100.00;102401.50;10218502;28;20049;-69
2023/03/03 02:50:54;;;;;;;66.97;24.70;;;;;;;-0.23;100.00;102390.75;10229718;28;20099;-68
2023/03/03 02:55:51;;;;;;;48.38;22.08;;;;;;;-0.35;100.00;102402.28;10217096;28;20038;-70
2023/03/03 03:00:47;;;;;;;48.20;22.83;;;;;;;-0.46;100.00;102407.22;10221685;28;20045;-69
2023/03/03 03:05:44;;;;;;;50.33;22.88;;;;;;;-0.47;100.00;102413.63;10222658;28;20554;-69
2023/03/03 03:10:40;;;;;;;59.67;23.58;;;;;;;-0.47;100.00;102415.47;10231242;28;20124;-71
2023/03/03 03:15:37;;;;;;;38.75;21.45;;;;;;;-0.38;100.00;102419.66;10226318;28;20092;-69
2023/03/03 03:20:36;;;;;;;38.55;23.58;;;;;;;-0.51;100.00;102416.91;10221338;28;20046;-69
2023/03/03 03:25:33;;;;;;;48.50;22.50;;;;;;;-0.62;100.00;102407.59;10220478;28;20125;-68
2023/03/03 03:30:29;;;;;;;78.20;25.63;;;;;;;-0.56;100.00;102416.69;10223498;28;20626;-68
2023/03/03 03:35:25;;;;;;;39.47;23.05;;;;;;;-0.44;100.00;102393.59;10221064;28;20048;-68
2023/03/03 03:40:24;;;;;;;51.47;22.55;;;;;;;-0.41;100.00;102403.94;10222850;28;20053;-69
2023/03/03 03:45:21;;;;;;;67.25;22.63;;;;;;;-0.50;100.00;102407.84;10226379;28;20707;-70
2023/03/03 03:50:17;;;;;;;46.97;21.52;;;;;;;-0.75;100.00;102419.09;10223783;28;20069;-69
2023/03/03 03:55:14;;;;;;;44.63;20.75;;;;;;;-0.71;100.00;102409.63;10211445;28;20054;-72
2023/03/03 04:00:12;;;;;;;42.83;20.52;;;;;;;-0.64;100.00;102394.34;10228729;28;20049;-71
2023/03/03 04:05:09;;;;;;;57.63;22.42;;;;;;;-0.74;100.00;102393.06;10234667;28;20064;-72
2023/03/03 04:10:06;;;;;;;42.30;23.77;;;;;;;-0.73;100.00;102395.56;10227814;28;20049;-69
2023/03/03 04:15:06;;;;;;;47.38;21.92;;;;;;;-0.66;100.00;102390.22;10229826;28;20148;-67
2023/03/03 04:20:04;;;;;;;45.10;22.30;;;;;;;-0.76;100.00;102390.59;10231381;28;20051;-73
2023/03/03 04:25:04;;;;;;;46.00;23.42;;;;;;;-0.80;100.00;102391.19;10223562;28;20049;-68
2023/03/03 04:30:02;;;;;;;53.75;24.67;;;;;;;-0.52;100.00;102396.47;10232807;28;20053;-69
2023/03/03 04:34:58;;;;;;;42.60;23.65;;;;;;;-0.50;100.00;102384.47;10228710;28;20152;-69
2023/03/03 04:40:05;;;;;;;48.33;22.02;;;;;;;-0.60;100.00;102388.56;10229394;28;20128;-69
2023/03/03 04:45:04;;;;;;;41.38;23.15;;;;;;;-0.69;100.00;102385.25;10231887;28;20140;-69
2023/03/03 04:50:00;;;;;;;41.15;24.35;;;;;;;-0.55;100.00;102391.50;10234323;28;20046;-70
2023/03/03 04:54:57;;;;;;;60.80;22.40;;;;;;;-0.50;100.00;102394.41;10213654;28;20092;-70
2023/03/03 04:59:53;;;;;;;40.75;23.65;;;;;;;-0.68;100.00;102403.03;10223458;28;20124;-69
2023/03/03 05:04:50;;;;;;;33.13;20.75;;;;;;;-0.61;100.00;102397.66;10223832;28;20084;-69
2023/03/03 05:09:46;;;;;;;49.15;22.20;;;;;;;-0.80;100.00;102393.88;10222588;28;20411;-69
2023/03/03 05:14:43;;;;;;;34.20;24.10;;;;;;;-0.55;100.00;102402.25;10219641;28;20452;-69
2023/03/03 05:19:39;;;;;;;36.33;23.88;;;;;;;-0.49;100.00;102406.78;10229943;28;20054;-69
2023/03/03 05:24:36;;;;;;;39.08;23.25;;;;;;;-0.58;100.00;102399.94;10221740;28;20126;-69
2023/03/03 05:29:32;;;;;;;35.75;23.52;;;;;;;-0.56;100.00;102397.88;10229381;28;20037;-69
2023/03/03 05:34:29;;;;;;;37.80;22.92;;;;;;;-0.61;100.00;102394.97;10202632;28;20128;-70
2023/03/03 05:39:25;;;;;;;59.95;25.17;;;;;;;-0.64;100.00;102394.34;10207229;28;20041;-70
2023/03/03 05:44:22;;;;;;;43.63;23.23;;;;;;;-0.67;100.00;102410.88;10219386;28;20476;-69
2023/03/03 05:49:18;;;;;;;37.33;22.08;;;;;;;-0.50;100.00;102410.53;10211724;28;20073;-69
2023/03/03 05:54:14;;;;;;;39.00;21.70;;;;;;;-0.59;100.00;102409.03;10225862;28;20038;-70
2023/03/03 05:59:11;;;;;;;29.92;21.63;;;;;;;-0.46;100.00;102403.72;10215119;28;20064;-69
2023/03/03 06:04:08;;;;;;;31.80;22.38;;;;;;;-0.43;100.00;102395.25;10207862;28;20049;-70
2023/03/03 06:09:05;;;;;;;32.47;21.20;;;;;;;-0.59;100.00;102395.63;10209010;28;20045;-70
2023/03/03 06:14:01;;;;;;;39.72;21.92;;;;;;;-0.66;100.00;102417.91;10208908;28;20080;-69
2023/03/03 06:18:58;;;;;;;35.53;20.58;;;;;;;-0.59;100.00;102433.22;10204434;28;20061;-69
2023/03/03 06:23:54;;;;;;;36.50;20.92;;;;;;;-0.58;100.00;102434.88;10205542;28;20081;-69
2023/03/03 06:28:52;;;;;;;32.22;21.83;;;;;;;-0.42;100.00;102426.44;10205969;28;20129;-70
2023/03/03 06:33:50;;;;;;;33.53;22.08;;;;;;;-0.50;100.00;102426.66;10212922;28;20042;-70
2023/03/03 06:38:46;;;;;;;31.50;21.55;;;;;;;-0.47;100.00;102431.59;10205219;28;20129;-70
2023/03/03 06:43:43;;;;;;;37.08;22.52;;;;;;;-0.70;100.00;102427.38;10223071;28;20128;-70
2023/03/03 06:48:40;;;;;;;36.95;22.17;;;;;;;-0.54;100.00;102438.81;10204574;28;20065;-70
2023/03/03 06:53:37;;;;;;;50.38;23.80;;;;;;;-0.51;100.00;102457.22;10207764;28;20050;-70
2023/03/03 06:58:34;;;;;;;32.97;20.35;;;;;;;-0.47;100.00;102451.25;10213001;28;20064;-69
2023/03/03 07:03:31;;;;;;;31.48;21.48;;;;;;;-0.35;100.00;102451.47;10223492;28;20046;-70
2023/03/03 07:08:30;;;;;;;34.90;17.92;;;;;;;-0.44;100.00;102458.09;10208072;28;20044;-70
2023/03/03 07:13:28;;;;;;;26.70;19.25;;;;;;;-0.47;100.00;102470.06;10219155;28;20128;-70
2023/03/03 07:18:47;;;;;;;36.20;22.08;;;;;;;-0.31;100.00;102473.44;10217897;28;20058;-70
2023/03/03 07:23:46;;;;;;;34.35;20.50;;;;;;;-0.36;100.00;102471.34;10206371;28;20415;-70
2023/03/03 07:29:00;;;;;;;29.35;20.52;;;;;;;-0.14;100.00;102479.25;10215606;28;20076;-71
2023/03/03 07:33:58;;;;;;;27.23;20.05;;;;;;;-0.05;100.00;102483.41;10215939;28;20052;-71
2023/03/03 07:38:59;;;;;;;27.10;19.88;;;;;;;-0.05;100.00;102478.03;10210993;28;20053;-71
2023/03/03 07:44:12;;;;;;;32.70;18.02;;;;;;;0.04;100.00;102487.56;10202948;28;20393;-70
2023/03/03 07:49:34;;;;;;;23.52;17.75;;;;;;;-0.13;100.00;102486.31;10205326;28;20520;-71
2023/03/03 07:54:39;;;;;;;29.92;17.60;;;;;;;-0.14;100.00;102487.31;10213512;28;20049;-71
2023/03/03 07:59:38;;;;;;;37.95;19.80;;;;;;;-0.06;100.00;102482.59;10200121;28;20555;-70
2023/03/03 08:04:49;;;;;;;25.70;18.08;;;;;;;0.35;100.00;102472.72;10205601;28;20432;-70
2023/03/03 08:09:55;;;;;;;32.40;18.88;;;;;;;0.42;100.00;102473.56;10202262;28;20041;-71
2023/03/03 08:14:53;;;;;;;39.60;23.00;;;;;;;0.18;100.00;102478.47;10213317;28;20063;-70
2023/03/03 08:19:51;;;;;;;25.75;18.63;;;;;;;0.36;100.00;102479.75;10214172;28;20471;-69
2023/03/03 08:24:48;;;;;;;23.65;18.42;;;;;;;0.58;100.00;102473.13;10198732;28;20514;-69
2023/03/03 08:29:44;;;;;;;28.52;18.60;;;;;;;0.62;100.00;102468.97;10206087;28;20038;-70
2023/03/03 08:34:44;;;;;;;29.30;17.80;;;;;;;0.72;100.00;102460.50;10207277;28;20060;-69
2023/03/03 08:39:40;;;;;;;23.98;17.70;;;;;;;0.82;100.00;102465.44;10202754;28;20065;-69
2023/03/03 08:44:37;;;;;;;20.90;17.00;;;;;;;0.94;100.00;102466.44;10212820;28;20045;-68
2023/03/03 08:49:33;;;;;;;21.52;17.20;;;;;;;1.11;100.00;102456.03;10213298;28;20137;-66
2023/03/03 08:54:30;;;;;;;22.45;17.17;;;;;;;1.16;100.00;102447.31;10205307;28;20068;-70
2023/03/03 08:59:26;;;;;;;25.75;16.92;;;;;;;1.26;100.00;102447.72;10227207;28;20076;-70
2023/03/03 09:04:23;;;;;;;23.33;15.80;;;;;;;1.00;100.00;102454.84;10219137;28;20457;-69
2023/03/03 09:09:20;;;;;;;23.02;17.17;;;;;;;1.22;100.00;102468.03;10210694;28;20549;-71
2023/03/03 09:14:19;;;;;;;19.20;15.38;;;;;;;1.13;100.00;102485.47;10224230;28;20049;-71
2023/03/03 09:19:16;;;;;;;19.63;15.50;;;;;;;1.30;100.00;102475.91;10207978;28;20685;-71
2023/03/03 09:24:26;;;;;;;23.60;17.85;;;;;;;1.50;100.00;102485.78;10226465;28;20115;-71
2023/03/03 09:29:36;;;;;;;22.58;16.95;;;;;;;1.42;100.00;102479.59;10209189;28;20045;-70
2023/03/03 09:34:36;;;;;;;20.48;14.70;;;;;;;1.31;100.00;102482.94;10213772;28;20136;-70
2023/03/03 09:39:35;;;;;;;19.88;15.20;;;;;;;1.20;100.00;102491.66;10226621;28;20037;-70
2023/03/03 09:45:02;;;;;;;27.83;18.58;;;;;;;1.54;100.00;102492.41;10207196;28;20491;-70
2023/03/03 09:50:08;;;;;;;26.30;17.83;;;;;;;1.59;100.00;102495.28;10215921;28;20191;-70
2023/03/03 09:55:23;;;;;;;28.88;18.85;;;;;;;1.75;100.00;102494.78;10226558;28;20152;-69
2023/03/03 10:00:39;;;;;;;27.50;19.20;;;;;;;1.80;100.00;102489.56;10206971;28;20042;-71
2023/03/03 10:05:48;;;;;;;29.23;20.30;;;;;;;1.90;100.00;102494.47;10213551;28;20069;-70
2023/03/03 10:11:08;;;;;;;28.83;19.00;;;;;;;2.14;100.00;102498.31;10208827;28;20053;-70
2023/03/03 10:16:11;;;;;;;33.55;21.27;;;;;;;2.40;100.00;102485.66;10209394;28;20172;-70
2023/03/03 10:21:08;;;;;;;36.78;20.40;;;;;;;2.48;100.00;102479.97;10223332;28;20055;-71
2023/03/03 10:26:20;;;;;;;32.00;19.65;;;;;;;2.59;100.00;102483.84;10216004;28;20491;-70
2023/03/03 10:31:47;;;;;;;40.50;23.73;;;;;;;2.72;100.00;102468.34;10221999;28;20391;-70
2023/03/03 10:37:04;;;;;;;37.15;21.80;;;;;;;3.05;100.00;102467.19;10211457;28;20525;-70
2023/03/03 10:42:21;;;;;;;31.83;19.80;;;;;;;3.16;100.00;102462.91;10217898;28;20061;-70
2023/03/03 10:47:32;;;;;;;29.67;16.80;;;;;;;3.14;100.00;102460.44;10204886;28;20904;-70
2023/03/03 10:52:37;;;;;;;26.58;16.75;;;;;;;3.36;100.00;102447.28;10202350;28;20128;-70
2023/03/03 10:57:38;;;;;;;23.27;15.73;;;;;;;3.53;100.00;102452.91;10208241;28;20089;-70
2023/03/03 11:02:47;;;;;;;26.63;16.83;;;;;;;3.67;100.00;102447.31;10222990;28;20654;-71
2023/03/03 11:07:50;;;;;;;26.15;17.85;;;;;;;3.36;100.00;102441.03;10223548;28;20071;-72
2023/03/03 11:13:20;;;;;;;24.08;16.58;;;;;;;3.09;100.00;102452.19;10207992;28;20136;-71
2023/03/03 11:18:34;;;;;;;24.40;15.57;;;;;;;3.18;100.00;102441.91;10207838;28;20091;-71
2023/03/03 11:23:59;;;;;;;24.30;16.50;;;;;;;3.37;100.00;102431.88;10204823;28;20099;-71
2023/03/03 11:29:13;;;;;;;27.15;18.50;;;;;;;3.65;100.00;102425.91;10213361;28;20057;-70
2023/03/03 11:34:38;;;;;;;29.73;19.15;;;;;;;3.64;100.00;102423.41;10219869;28;20140;-71
2023/03/03 11:39:36;;;;;;;23.85;17.45;;;;;;;3.63;100.00;102421.78;10214386;28;20068;-71
2023/03/03 11:44:54;;;;;;;25.80;18.23;;;;;;;3.56;100.00;102419.97;10229201;28;20711;-71
2023/03/03 11:50:10;;;;;;;35.15;22.40;;;;;;;3.67;100.00;102404.84;10209573;28;20400;-71
2023/03/03 11:55:34;;;;;;;30.27;19.85;;;;;;;3.76;100.00;102397.22;10199841;28;20057;-69
2023/03/03 12:00:53;;;;;;;30.85;20.63;;;;;;;3.95;100.00;102390.69;10221231;28;20048;-70
2023/03/03 12:06:16;;;;;;;29.63;18.70;;;;;;;4.00;100.00;102381.88;10217834;28;20052;-69
2023/03/03 12:11:26;;;;;;;24.67;15.77;;;;;;;4.09;100.00;102382.38;10202731;28;20056;-72
2023/03/03 12:16:38;;;;;;;26.40;17.83;;;;;;;4.06;100.00;102378.25;10209107;28;20050;-71
2023/03/03 12:22:00;;;;;;;23.73;15.27;;;;;;;4.33;100.00;102370.47;10202379;28;20125;-72
2023/03/03 12:27:15;;;;;;;26.02;16.38;;;;;;;4.63;100.00;102348.66;10220451;28;20037;-70
2023/03/03 12:32:34;;;;;;;19.40;14.00;;;;;;;5.12;100.00;102337.47;10218023;28;20103;-71
2023/03/03 12:37:53;;;;;;;23.55;14.75;;;;;;;4.83;100.00;102336.63;10223747;28;20038;-71
2023/03/03 12:43:12;;;;;;;20.20;14.00;;;;;;;5.03;100.00;102322.66;10220859;28;20471;-71
2023/03/03 12:48:20;;;;;;;20.70;12.32;;;;;;;5.06;100.00;102319.47;10197671;28;20496;-70
2023/03/03 12:53:51;;;;;;;18.05;11.05;;;;;;;5.31;100.00;102308.25;10222046;28;20041;-69
2023/03/03 12:59:02;;;;;;;15.57;11.57;;;;;;;4.99;100.00;102297.09;10214011;28;20044;-69
2023/03/03 13:04:28;;;;;;;16.42;10.75;;;;;;;5.02;100.00;102296.63;10221782;28;20117;-69
2023/03/03 13:10:03;;;;;;;17.80;10.65;;;;;;;5.05;100.00;102290.72;10208589;28;20049;-70
2023/03/03 13:15:15;;;;;;;16.38;10.38;;;;;;;4.93;100.00;102284.50;10218969;28;20049;-67
2023/03/03 13:20:56;;;;;;;13.82;9.05;;;;;;;5.15;100.00;102280.06;10221540;28;20073;-68
2023/03/03 13:26:15;;;;;;;13.23;9.27;;;;;;;5.24;100.00;102272.34;10207669;28;20046;-65
2023/03/03 13:31:34;;;;;;;10.55;8.80;;;;;;;5.07;100.00;102281.25;10228552;28;20049;-66
2023/03/03 13:36:41;;;;;;;8.10;7.40;;;;;;;5.37;100.00;102265.81;10212647;28;20045;-66
2023/03/03 13:41:58;;;;;;;7.88;6.43;;;;;;;6.37;100.00;102255.94;10208341;28;20080;-66
2023/03/03 13:47:05;;;;;;;6.90;6.20;;;;;;;5.77;100.00;102251.25;10216374;28;20187;-66
2023/03/03 13:52:08;;;;;;;7.80;5.50;;;;;;;5.43;100.00;102245.81;10207950;28;20050;-66
2023/03/03 13:57:49;;;;;;;7.72;6.18;;;;;;;5.55;100.00;102245.75;10221315;28;20074;-66
2023/03/03 14:03:00;;;;;;;6.63;5.90;;;;;;;5.56;100.00;102228.41;10226631;28;20512;-66
2023/03/03 14:08:06;;;;;;;8.35;5.68;;;;;;;5.47;100.00;102233.41;10230186;28;20088;-66
2023/03/03 14:13:30;;;;;;;9.40;6.18;;;;;;;5.79;100.00;102211.13;10225396;28;20045;-66
2023/03/03 14:18:33;;;;;;;8.27;6.10;;;;;;;5.67;100.00;102205.78;10224395;28;20045;-66
2023/03/03 14:23:39;;;;;;;7.03;5.72;;;;;;;5.57;100.00;102195.59;10225294;28;20044;-66
2023/03/03 14:28:48;;;;;;;6.47;5.80;;;;;;;5.52;100.00;102190.06;10228636;28;20041;-66
2023/03/03 14:34:15;;;;;;;11.70;5.70;;;;;;;5.39;100.00;102187.72;10220762;28;20132;-67
2023/03/03 14:39:37;;;;;;;15.02;7.22;;;;;;;5.33;100.00;102183.28;10220965;28;20048;-66
2023/03/03 14:44:47;;;;;;;8.32;6.13;;;;;;;5.27;100.00;102180.47;10219530;28;20049;-66
2023/03/03 14:49:43;;;;;;;7.53;5.93;;;;;;;5.18;100.00;102187.38;10211285;28;20038;-66
2023/03/03 14:54:48;;;;;;;6.63;5.40;;;;;;;5.22;100.00;102166.84;10224991;28;20071;-66
2023/03/03 15:00:09;;;;;;;9.38;6.05;;;;;;;5.30;100.00;102157.47;10225312;28;20045;-66
2023/03/03 15:05:16;;;;;;;6.72;5.95;;;;;;;5.41;100.00;102153.84;10217859;28;20076;-67
2023/03/03 15:10:26;;;;;;;9.20;5.75;;;;;;;5.21;100.00;102145.38;10224605;28;20439;-69
2023/03/03 15:15:26;;;;;;;8.13;5.97;;;;;;;5.15;100.00;102149.91;10228065;28;20096;-67
2023/03/03 15:20:42;;;;;;;5.82;5.32;;;;;;;5.04;100.00;102148.09;10229286;28;20504;-67
2023/03/03 15:26:03;;;;;;;6.57;5.75;;;;;;;4.99;100.00;102134.44;10224801;28;20041;-67
2023/03/03 15:31:11;;;;;;;6.80;6.00;;;;;;;5.01;100.00;102148.56;10224927;28;20057;-67
2023/03/03 15:36:23;;;;;;;9.52;6.20;;;;;;;5.02;100.00;102128.53;10220297;28;20143;-67
2023/03/03 15:41:43;;;;;;;14.98;6.25;;;;;;;5.00;100.00;102122.53;10223741;28;20052;-67
2023/03/03 15:46:45;;;;;;;8.25;5.47;;;;;;;4.90;100.00;102125.06;10228939;28;20049;-65
2023/03/03 15:52:24;;;;;;;8.32;6.30;;;;;;;4.89;100.00;102126.97;10222623;28;20073;-65
2023/03/03 15:57:25;;;;;;;9.80;6.57;;;;;;;4.74;100.00;102122.09;10219935;28;20143;-64
2023/03/03 16:02:29;;;;;;;12.98;6.18;;;;;;;4.68;100.00;102131.19;10221103;28;20136;-65
2023/03/03 16:08:00;;;;;;;10.77;5.85;;;;;;;4.71;100.00;102128.03;10235757;28;20049;-66
2023/03/03 16:13:20;;;;;;;13.25;6.20;;;;;;;4.65;100.00;102134.41;10231981;28;20045;-66
2023/03/03 16:18:28;;;;;;;16.27;6.63;;;;;;;4.57;100.00;102134.78;10214791;28;20129;-66
2023/03/03 16:23:36;;;;;;;12.07;6.28;;;;;;;4.57;100.00;102132.94;10231085;28;20041;-66
2023/03/03 16:28:53;;;;;;;14.68;7.13;;;;;;;4.59;100.00;102129.94;10228863;28;20037;-66
2023/03/03 16:34:02;;;;;;;18.02;7.05;;;;;;;4.55;100.00;102128.78;10224011;28;20048;-65
2023/03/03 16:39:10;;;;;;;16.77;7.18;;;;;;;4.48;100.00;102133.53;10233341;28;20055;-65
2023/03/03 16:44:27;;;;;;;13.85;6.45;;;;;;;4.39;100.00;102142.06;10228212;28;20060;-67
2023/03/03 16:49:32;;;;;;;18.30;7.20;;;;;;;4.45;100.00;102139.44;10224573;28;20436;-66
2023/03/03 16:54:53;;;;;;;17.65;7.60;;;;;;;4.45;100.00;102134.84;10206827;28;20499;-66
2023/03/03 17:00:13;;;;;;;13.43;6.85;;;;;;;4.37;100.00;102138.75;10211701;28;20372;-66
2023/03/03 17:05:34;;;;;;;16.30;6.35;;;;;;;4.37;100.00;102138.75;10216758;28;20096;-67
2023/03/03 17:10:41;;;;;;;14.48;6.93;;;;;;;4.36;100.00;102142.56;10223691;28;20048;-67
2023/03/03 17:15:48;;;;;;;18.50;6.90;;;;;;;4.41;100.00;102128.28;10224079;28;20042;-66
2023/03/03 17:20:49;;;;;;;14.48;7.07;;;;;;;4.34;100.00;102150.09;10234871;28;20075;-67
2023/03/03 17:26:15;;;;;;;20.37;8.40;;;;;;;4.36;100.00;102137.13;10212649;28;20084;-67
2023/03/03 17:31:11;;;;;;;23.35;7.63;;;;;;;4.27;100.00;102138.56;10214186;28;20133;-67
2023/03/03 17:36:23;;;;;;;23.35;7.63;;;;;;;4.22;100.00;102135.75;10221276;28;20141;-67
2023/03/03 17:41:40;;;;;;;23.00;8.98;;;;;;;4.24;100.00;102138.22;10218236;28;20053;-67
2023/03/03 17:46:43;;;;;;;14.18;7.20;;;;;;;4.17;100.00;102132.94;10229029;28;20525;-67
2023/03/03 17:52:00;;;;;;;20.27;8.18;;;;;;;4.22;100.00;102138.44;10229144;28;20072;-67
2023/03/03 17:57:10;;;;;;;16.63;8.77;;;;;;;4.18;100.00;102135.41;10226768;28;20079;-66
2023/03/03 18:02:21;;;;;;;19.38;6.68;;;;;;;4.21;100.00;102142.22;10230682;28;20041;-67
2023/03/03 18:07:44;;;;;;;23.60;7.57;;;;;;;4.17;100.00;102144.59;10213548;28;20801;-67
2023/03/03 18:13:02;;;;;;;27.50;7.80;;;;;;;4.17;100.00;102138.34;10228809;28;20503;-67
2023/03/03 18:18:05;;;;;;;20.90;8.55;;;;;;;4.18;100.00;102137.31;10229615;28;20427;-67
2023/03/03 18:23:26;;;;;;;26.10;7.85;;;;;;;4.23;100.00;102142.81;10228656;28;20136;-67
2023/03/03 18:28:55;;;;;;;30.23;8.70;;;;;;;4.23;100.00;102137.41;10218688;28;20079;-67
2023/03/03 18:34:25;;;;;;;24.33;8.95;;;;;;;4.21;100.00;102131.41;10217854;28;20458;-67
2023/03/03 18:40:00;;;;;;;26.13;8.93;;;;;;;4.18;100.00;102134.59;10224338;28;20560;-67
2023/03/03 18:45:09;;;;;;;29.40;8.15;;;;;;;4.09;100.00;102126.03;10140939;28;20462;-67
2023/03/03 18:50:30;;;;;;;25.90;7.97;;;;;;;3.92;100.00;102117.84;10210391;28;20087;-67
2023/03/03 18:55:27;;;;;;;19.20;6.70;;;;;;;3.84;100.00;102112.78;10220972;28;20108;-67
2023/03/03 19:00:29;;;;;;;20.65;7.00;;;;;;;3.80;100.00;102111.63;10218321;28;20128;-67
2023/03/03 19:05:35;;;;;;;19.58;7.20;;;;;;;3.82;100.00;102114.09;10224950;28;20045;-67
2023/03/03 19:10:50;;;;;;;27.83;8.73;;;;;;;3.86;100.00;102116.09;10227286;28;20072;-66
2023/03/03 19:15:53;;;;;;;30.77;9.20;;;;;;;3.89;100.00;102115.59;10214932;28;20128;-68
2023/03/03 19:20:59;;;;;;;27.00;8.30;;;;;;;3.83;100.00;102113.00;10221574;28;20051;-68
2023/03/03 19:26:24;;;;;;;18.95;7.30;;;;;;;3.81;100.00;102107.88;10231603;28;20045;-66
2023/03/03 19:31:33;;;;;;;21.25;7.90;;;;;;;3.64;100.00;102106.94;10220741;28;20046;-66
2023/03/03 19:36:46;;;;;;;24.05;7.97;;;;;;;3.52;100.00;102105.06;10226731;28;20087;-66
2023/03/03 19:41:49;;;;;;;28.02;8.07;;;;;;;3.52;100.00;102110.47;10229228;28;20099;-66
2023/03/03 19:46:50;;;;;;;29.55;7.63;;;;;;;3.50;100.00;102118.00;10225285;28;20053;-65
2023/03/03 19:52:05;;;;;;;32.13;9.18;;;;;;;3.50;100.00;102112.59;10225588;28;21581;-66
2023/03/03 19:57:09;;;;;;;35.03;9.07;;;;;;;3.44;100.00;102113.53;10222928;28;20084;-66
2023/03/03 20:02:24;;;;;;;26.35;8.70;;;;;;;3.44;100.00;102113.53;10221378;28;20084;-66
2023/03/03 20:07:57;;;;;;;24.13;7.95;;;;;;;3.55;100.00;102115.44;10220900;28;20053;-66
2023/03/03 20:13:13;;;;;;;29.38;8.27;;;;;;;3.58;100.00;102117.66;10224697;28;20411;-66
2023/03/03 20:18:41;;;;;;;28.33;8.35;;;;;;;3.62;100.00;102109.91;10220756;28;20551;-66
2023/03/03 20:23:51;;;;;;;29.00;8.57;;;;;;;3.68;100.00;102106.22;10221788;28;20037;-66
2023/03/03 20:29:12;;;;;;;28.42;8.98;;;;;;;3.72;100.00;102109.28;10215975;28;20049;-66
2023/03/03 20:34:25;;;;;;;38.85;9.45;;;;;;;3.72;100.00;102103.88;10221615;28;20103;-66
2023/03/03 20:39:40;;;;;;;23.85;8.88;;;;;;;3.70;100.00;102106.81;10210576;28;20455;-66
2023/03/03 20:45:17;;;;;;;27.38;9.55;;;;;;;3.75;100.00;102116.91;10211204;28;20131;-65
2023/03/03 20:50:26;;;;;;;27.25;9.35;;;;;;;3.82;100.00;102109.50;10226230;28;20057;-66
2023/03/03 20:55:41;;;;;;;26.98;9.32;;;;;;;3.87;100.00;102106.06;10207845;28;20046;-65
2023/03/03 21:01:05;;;;;;;25.05;8.70;;;;;;;3.90;100.00;102106.44;10223498;28;20049;-65
2023/03/03 21:06:07;;;;;;;27.17;9.00;;;;;;;3.90;100.00;102095.59;10208504;28;20045;-66
2023/03/03 21:11:06;;;;;;;28.17;8.15;;;;;;;3.95;100.00;102103.81;10225799;28;20115;-65
2023/03/03 21:16:30;;;;;;;31.95;9.60;;;;;;;3.98;100.00;102089.81;10227185;28;20041;-65
2023/03/03 21:21:29;;;;;;;26.27;8.05;;;;;;;3.99;100.00;102105.00;10227323;28;20074;-66
2023/03/03 21:26:54;;;;;;;22.95;8.18;;;;;;;4.06;100.00;102099.44;10226816;28;20092;-66
2023/03/03 21:32:05;;;;;;;24.30;8.40;;;;;;;4.10;100.00;102078.94;10224882;28;20045;-66
2023/03/03 21:37:05;;;;;;;23.92;8.77;;;;;;;4.11;100.00;102077.06;10218432;28;20136;-66
2023/03/03 21:42:07;;;;;;;24.23;7.53;;;;;;;4.13;100.00;102085.75;10221559;28;20053;-65
2023/03/03 21:47:10;;;;;;;29.75;8.60;;;;;;;4.11;100.00;102077.06;10217250;28;20053;-66
2023/03/03 21:52:07;;;;;;;26.40;7.72;;;;;;;4.13;100.00;102072.22;10216202;28;20073;-66
2023/03/03 21:57:03;;;;;;;33.80;8.02;;;;;;;4.18;100.00;102069.63;10216667;28;20140;-66
2023/03/03 22:02:00;;;;;;;24.15;8.27;;;;;;;4.13;100.00;102073.06;10225105;28;20045;-66
2023/03/03 22:06:56;;;;;;;22.02;7.93;;;;;;;4.14;100.00;102063.06;10226720;28;20057;-66
2023/03/03 22:11:53;;;;;;;19.70;7.15;;;;;;;4.12;100.00;102065.19;10219107;28;20041;-68
2023/03/03 22:16:49;;;;;;;24.70;7.93;;;;;;;4.14;100.00;102054.94;10221678;28;20057;-69
2023/03/03 22:21:46;;;;;;;23.30;9.00;;;;;;;4.14;100.00;102068.47;10228570;28;20041;-69
2023/03/03 22:26:43;;;;;;;19.40;7.30;;;;;;;4.10;100.00;102061.88;10224672;28;20459;-67
2023/03/03 22:31:39;;;;;;;24.20;8.00;;;;;;;4.10;100.00;102056.47;10218229;28;20045;-70
2023/03/03 22:36:35;;;;;;;25.92;7.75;;;;;;;4.11;100.00;102044.59;10220209;28;20160;-68
2023/03/03 22:41:32;;;;;;;20.98;7.22;;;;;;;4.12;100.00;102040.81;10210809;28;20145;-69
2023/03/03 22:46:28;;;;;;;27.85;7.72;;;;;;;4.13;100.00;102042.44;10199081;28;20088;-70
2023/03/03 22:51:25;;;;;;;28.30;8.13;;;;;;;4.05;100.00;102042.84;10206769;28;20049;-70
2023/03/03 22:56:22;;;;;;;23.73;8.55;;;;;;;4.12;100.00;102040.81;10208916;28;20053;-70
2023/03/03 23:01:18;;;;;;;24.38;7.10;;;;;;;4.15;100.00;102046.53;10209611;28;20060;-69